Date,TemperatureHighF,TemperatureAvgF,TemperatureLowF,DewpointHighF,DewpointAvgF,DewpointLowF,HumidityHigh,HumidityAvg,HumidityLow,PressureMaxIn,PressureMinIn,WindSpeedMaxMPH,WindSpeedAvgMPH,GustSpeedMaxMPH,PrecipitationSumIn
2014-1-1,37.4,31.5,21.2,30.2,24.3,16.8,86,75,56,30.51,29.89,14,0,19,0.04
2014-1-2,49.5,29.6,17.2,25.9,19.0,12.1,83,67,28,30.55,30.15,4,0,5,0.00
2014-1-3,63.1,45.0,26.5,23.8,20.4,18.0,76,41,21,30.15,29.58,13,1,14,0.00
2014-1-4,36.4,20.4,15.0,19.4,15.6,10.8,85,82,48,30.39,29.63,6,1,10,0.00
2014-1-5,16.1,9.2,2.3,11.9,3.5,-3.3,83,77,73,30.84,30.34,9,1,13,0.00
2014-1-6,36.6,14.1,0.4,18.5,5.5,-5.4,81,69,40,30.78,30.29,7,0,12,0.11
2014-1-7,42.5,32.8,23.7,26.5,21.4,13.7,77,63,42,30.36,30.05,5,0,9,0.05
2014-1-8,42.7,29.4,19.1,24.7,20.2,14.2,83,69,46,30.34,30.08,6,0,6,0.02
2014-1-9,48.3,31.2,19.4,22.7,18.8,14.5,82,63,30,30.12,29.75,6,0,7,0.01
2014-1-10,43.2,33.5,26.4,19.3,13.6,7.0,64,44,32,30.01,29.74,14,1,20,0.00
2014-1-11,59.8,45.0,27.8,27.9,22.9,15.6,62,43,29,30.15,29.58,14,1,15,0.00
2014-1-12,45.1,36.8,30.2,28.8,15.7,6.9,68,43,25,30.11,29.53,15,1,18,0.00
2014-1-13,48.6,38.8,29.9,19.4,14.0,7.5,43,36,29,30.12,29.97,16,2,21,0.00
2014-1-14,40.2,30.7,22.8,24.1,20.0,15.9,80,66,37,30.59,30.06,11,1,14,0.01
2014-1-15,57.2,39.1,22.1,24.0,17.7,13.7,78,46,26,30.50,30.08,9,1,14,0.01
2014-1-16,46.7,37.4,26.4,20.4,15.8,12.1,65,42,31,30.46,30.08,10,0,11,0.00
2014-1-17,55.3,36.7,21.9,19.9,16.4,14.1,73,47,23,30.40,30.09,7,0,11,0.00
2014-1-18,55.2,37.8,23.1,20.9,16.6,12.8,66,45,23,30.37,30.14,6,0,10,0.00
2014-1-19,64.8,45.0,26.3,20.3,13.9,8.4,50,30,17,30.25,29.91,9,0,11,0.00
2014-1-20,48.7,38.7,26.0,22.0,16.9,11.2,66,42,26,30.54,29.93,9,0,14,0.00
2014-1-21,63.6,43.1,25.4,16.7,7.3,-0.6,68,27,9,30.50,30.08,10,1,16,0.00
2014-1-22,44.4,31.3,22.1,21.6,15.4,8.3,81,52,39,30.43,30.14,7,0,10,0.00
2014-1-23,26.8,17.5,8.5,21.5,10.0,3.6,82,73,55,30.86,30.39,11,0,11,0.09
2014-1-24,57.5,36.7,16.7,24.0,14.1,5.4,74,43,20,30.63,30.22,10,0,11,0.02
2014-1-25,62.3,44.6,28.6,30.2,21.3,16.9,63,42,26,30.32,29.87,11,1,15,0.00
2014-1-26,56.8,37.4,19.7,25.9,18.3,9.8,71,49,23,30.38,29.73,14,1,17,0.00
2014-1-27,23.0,19.2,13.2,15.9,11.7,8.4,83,73,56,30.53,30.25,6,0,8,0.00
2014-1-28,36.5,20.4,7.4,11.9,7.6,3.3,92,61,29,30.64,30.28,7,0,9,0.05
2014-1-29,53.2,45.3,18.8,29.3,22.5,10.0,69,41,29,30.22,29.36,9,0,21,0.00
2014-1-30,51.3,40.8,25.4,35.6,27.6,21.5,89,62,35,29.82,29.35,13,0,14,0.02
2014-1-31,26.0,21.9,18.0,21.8,18.2,15.1,89,85,79,30.08,29.81,6,0,10,0.00
2014-2-1,26.3,22.0,15.5,22.0,17.8,10.7,95,84,78,30.39,30.00,3,0,5,0.00
2014-2-2,26.1,15.2,5.5,14.6,9.0,1.5,92,76,57,30.44,30.21,6,0,6,0.08
2014-2-3,30.0,19.8,9.0,18.1,12.3,5.2,85,73,57,30.28,30.10,5,0,6,0.04
2014-2-4,22.9,12.8,-1.6,16.4,7.2,-7.0,83,78,75,30.76,30.12,10,1,11,0.00
2014-2-5,4.1,-3.5,-8.0,-2.6,-9.2,-13.3,80,76,67,30.95,30.76,8,1,12,0.00
2014-2-6,6.2,-2.6,-8.6,-3.5,-9.2,-13.9,78,73,62,30.83,30.45,5,0,6,0.00
2014-2-7,45.8,20.8,-2.7,24.3,10.6,-8.4,81,66,37,30.46,29.94,5,0,8,0.21
2014-2-8,52.1,34.8,22.0,27.8,21.0,13.8,82,59,36,30.16,29.88,13,1,16,0.07
2014-2-9,24.7,22.2,18.4,20.8,18.5,14.6,87,85,82,30.36,30.08,6,1,7,0.00
2014-2-10,37.1,26.8,17.2,26.5,21.4,14.3,89,80,64,30.39,30.19,6,0,8,0.00
2014-2-11,47.1,34.3,21.1,19.9,17.6,15.1,86,54,29,30.36,30.02,9,1,15,0.00
2014-2-12,46.3,35.7,24.1,25.1,21.5,15.6,81,58,29,30.31,29.90,8,0,12,0.00
2014-2-13,60.2,50.4,34.4,31.0,28.6,24.6,71,44,30,30.02,29.71,17,1,18,0.00
2014-2-14,51.4,41.8,28.7,29.1,23.4,15.8,76,50,30,30.14,29.80,12,0,15,0.00
2014-2-15,58.4,43.9,30.2,33.9,29.3,23.5,83,60,26,30.18,29.70,13,1,17,0.00
2014-2-16,67.6,45.8,29.3,35.1,27.3,12.5,87,55,21,30.11,29.63,14,1,25,0.00
2014-2-17,66.1,48.4,31.4,18.6,11.1,5.3,41,24,11,30.16,29.68,16,1,21,0.00
2014-2-18,62.4,50.7,37.3,26.9,15.2,8.3,58,27,13,29.97,29.64,15,1,20,0.00
2014-2-19,65.2,43.7,27.9,29.1,23.2,17.6,87,50,19,29.89,29.43,13,1,17,0.01
2014-2-20,37.4,30.6,24.5,24.1,10.3,3.4,86,45,28,30.19,29.75,14,1,19,0.04
2014-2-21,52.3,41.2,31.0,18.3,12.0,6.8,44,31,19,30.04,29.81,22,2,22,0.00
2014-2-22,55.2,38.3,25.6,26.5,19.6,14.5,85,51,22,30.12,29.77,13,1,16,0.00
2014-2-23,49.7,33.0,25.8,34.6,26.6,21.9,92,79,43,30.22,30.00,7,0,9,0.05
2014-2-24,66.0,38.3,22.1,30.1,21.9,12.8,90,60,17,30.46,29.84,14,1,18,0.00
2014-2-25,29.2,20.2,11.5,18.8,12.8,6.5,80,73,62,30.69,30.05,15,2,17,0.00
2014-2-26,49.3,27.0,10.3,28.2,15.8,5.4,85,65,35,30.63,30.09,5,0,7,0.04
2014-2-27,59.7,43.9,26.0,30.5,25.0,17.5,77,51,28,30.10,29.48,10,0,12,0.00
2014-2-28,59.4,45.3,32.3,32.5,26.2,17.5,78,52,22,29.79,29.50,14,1,14,0.00
2014-3-1,20.9,15.5,11.8,17.6,10.2,6.5,88,79,71,30.44,30.05,11,2,13,0.01
2014-3-2,24.5,16.3,7.5,16.9,9.8,3.0,83,75,65,30.57,30.38,6,1,9,0.01
2014-3-3,59.4,41.4,20.1,27.3,22.2,13.7,82,51,26,30.42,29.92,11,1,14,0.02
2014-3-4,62.7,43.8,32.3,33.6,23.7,18.9,87,50,20,30.11,29.72,13,1,14,0.01
2014-3-5,53.4,39.8,30.8,34.3,28.7,24.3,90,67,37,30.28,30.09,5,0,6,0.44
2014-3-6,62.7,48.0,34.0,28.3,24.5,19.5,63,42,23,30.10,29.72,4,0,5,0.00
2014-3-7,43.1,37.0,32.8,34.2,30.1,26.1,91,77,53,30.32,29.72,7,0,8,0.14
2014-3-8,51.9,39.1,31.1,34.1,29.1,24.2,92,70,41,30.45,30.30,9,0,9,0.30
2014-3-9,72.8,52.2,36.2,26.8,18.2,11.3,60,30,11,30.32,29.93,11,2,14,0.00
2014-3-10,72.6,55.9,43.0,28.9,20.8,10.8,43,27,15,30.02,29.49,15,0,15,0.00
2014-3-11,46.6,35.3,24.4,31.4,23.9,16.5,88,65,37,30.56,29.54,18,2,19,0.01
2014-3-12,54.5,34.9,19.5,18.0,14.5,8.9,79,49,17,30.63,30.27,6,1,11,0.02
2014-3-13,62.3,45.0,25.2,21.4,18.0,14.4,65,37,19,30.28,29.82,14,1,17,0.00
2014-3-14,65.0,46.7,29.7,25.4,20.8,11.3,67,39,15,30.14,29.85,12,1,12,0.00
2014-3-15,48.6,41.8,30.8,27.1,20.5,15.5,67,43,30,30.46,29.78,18,3,23,0.00
2014-3-16,65.8,43.2,24.1,27.6,21.3,16.1,82,48,19,30.49,29.93,7,0,9,0.00
2014-3-17,71.2,53.9,39.7,30.5,20.1,12.7,54,28,13,29.93,29.18,15,1,23,0.00
2014-3-18,41.8,35.1,29.5,26.8,17.2,7.8,83,50,29,30.31,29.38,17,4,22,0.00
2014-3-19,59.8,39.9,23.1,18.0,14.8,8.1,75,42,15,30.31,30.01,10,1,11,0.00
2014-3-20,67.8,49.4,30.0,18.9,12.5,6.9,48,26,12,30.07,29.75,9,1,11,0.00
2014-3-21,51.9,39.9,27.7,23.4,18.3,9.2,61,43,18,30.23,29.74,11,1,17,0.00
2014-3-22,38.9,31.1,27.3,27.8,22.8,17.9,92,72,47,30.54,30.10,11,1,13,0.03
2014-3-23,63.0,40.9,24.0,25.4,19.3,8.9,88,51,13,30.50,29.97,14,1,18,0.01
2014-3-24,46.7,34.6,26.3,25.5,20.6,16.1,72,57,39,30.44,30.19,10,1,13,0.00
2014-3-25,65.3,41.4,23.0,31.8,23.8,16.7,79,53,23,30.44,29.79,6,0,9,0.00
2014-3-26,68.8,50.0,32.4,33.3,24.9,20.0,61,41,20,29.79,29.27,14,1,24,0.00
2014-3-27,59.4,48.0,38.5,35.7,24.9,13.4,81,45,18,29.83,29.27,12,1,14,0.00
2014-3-28,57.0,44.1,33.4,31.5,22.0,14.0,84,47,20,30.22,29.83,18,2,19,0.01
2014-3-29,69.1,49.2,31.2,23.6,18.3,13.3,54,32,16,30.24,29.83,7,0,13,0.00
2014-3-30,71.5,55.8,40.1,31.8,22.7,17.1,54,29,17,29.83,29.38,22,3,27,0.00
2014-3-31,56.4,47.4,38.8,23.3,18.5,13.4,51,33,19,30.05,29.36,15,2,20,0.00
2014-4-1,59.3,46.0,33.3,30.4,24.5,19.5,59,44,26,30.00,29.62,12,1,13,0.00
2014-4-2,52.7,40.1,29.9,34.8,28.5,23.7,86,64,42,29.90,29.67,9,1,11,0.11
2014-4-3,44.7,35.9,32.2,32.0,30.2,28.1,91,80,57,30.27,29.83,7,1,12,0.64
2014-4-4,55.4,40.9,27.8,30.0,25.1,19.3,92,57,28,30.26,29.94,8,1,12,0.05
2014-4-5,59.0,46.3,35.2,31.4,26.7,22.5,63,48,27,29.98,29.79,7,1,14,0.00
2014-4-6,56.6,44.9,35.2,36.7,30.1,23.9,77,58,33,29.98,29.83,13,1,16,0.00
2014-4-7,55.9,45.5,37.1,32.9,25.0,17.0,74,47,25,30.25,29.97,13,2,17,0.00
2014-4-8,71.7,52.9,32.6,36.5,27.3,22.5,69,40,22,30.29,29.97,6,0,12,0.00
2014-4-9,79.1,62.2,44.6,36.8,26.9,22.9,46,28,15,29.99,29.68,9,0,11,0.00
2014-4-10,70.5,54.6,43.3,39.1,33.1,22.3,69,46,25,30.00,29.70,7,0,10,0.00
2014-4-11,79.8,60.5,41.9,37.1,29.7,21.0,66,35,12,30.02,29.63,9,0,10,0.00
2014-4-12,72.7,59.7,48.8,36.3,28.9,24.6,56,32,18,29.65,29.47,15,1,18,0.00
2014-4-13,49.9,32.8,21.4,35.2,27.9,18.0,89,83,56,30.50,29.59,13,3,16,0.13
2014-4-14,42.7,30.2,19.9,24.5,19.0,14.3,87,65,41,30.61,30.29,9,1,12,0.16
2014-4-15,67.4,49.6,31.3,28.7,21.3,15.9,68,36,17,30.29,29.59,10,1,11,0.00
2014-4-16,56.7,49.3,42.1,30.9,24.0,18.2,64,38,26,30.09,29.54,14,2,17,0.00
2014-4-17,66.4,50.2,34.4,37.0,31.4,24.4,78,52,25,30.14,29.91,9,0,11,0.00
2014-4-18,80.1,61.7,41.8,38.7,33.4,29.8,65,38,19,29.97,29.65,13,1,15,0.00
2014-4-19,70.6,57.6,52.1,49.6,39.0,30.7,79,52,35,29.99,29.67,14,0,14,0.04
2014-4-20,72.5,59.0,46.7,45.3,40.3,34.9,77,53,28,30.03,29.84,10,1,14,0.00
2014-4-21,70.3,58.2,44.7,43.2,35.9,27.9,63,44,32,30.25,29.96,12,1,13,0.00
2014-4-22,81.2,64.7,47.5,43.9,37.3,33.2,63,38,21,29.98,29.39,15,1,27,0.00
2014-4-23,75.1,58.7,41.8,40.7,35.0,25.3,88,46,17,29.82,29.33,15,1,20,0.21
2014-4-24,67.6,51.4,33.6,38.4,31.4,23.2,88,52,24,30.10,29.77,9,0,12,0.00
2014-4-25,76.7,59.6,39.6,35.7,29.5,24.9,62,35,18,29.87,29.41,9,1,15,0.00
2014-4-26,78.0,62.4,45.8,35.8,29.2,24.2,54,30,17,29.46,29.10,21,2,22,0.00
2014-4-27,57.2,48.8,42.5,39.7,30.9,22.5,71,51,33,29.63,29.08,15,2,17,0.03
2014-4-28,54.5,46.5,37.6,28.1,20.2,11.0,63,36,20,30.00,29.58,15,2,18,0.00
2014-4-29,53.6,45.4,37.3,27.4,21.9,18.4,65,40,26,30.34,30.00,22,6,30,0.00
2014-4-30,52.1,43.2,32.9,26.7,23.0,19.6,74,47,30,30.37,30.27,22,4,26,0.00
2014-5-1,61.4,48.3,34.4,27.6,21.3,15.9,62,37,20,30.35,30.06,15,2,18,0.00
2014-5-2,78.8,58.8,37.7,37.1,28.8,20.1,52,34,20,30.13,29.74,14,1,14,0.00
2014-5-3,81.3,65.2,45.9,38.2,31.8,26.6,58,31,15,29.87,29.67,11,0,12,0.00
2014-5-4,86.2,69.9,54.0,38.7,29.5,23.7,43,24,11,29.75,29.51,13,1,17,0.00
2014-5-5,83.5,67.9,50.2,35.5,28.4,20.8,46,24,10,29.73,29.46,14,1,19,0.00
2014-5-6,78.3,64.1,52.9,40.8,32.8,22.6,49,32,21,29.53,29.32,10,1,13,0.00
2014-5-7,70.5,56.4,42.8,49.7,43.3,34.4,85,63,31,29.73,29.38,10,1,16,0.15
2014-5-8,54.6,44.4,37.8,44.4,38.7,34.8,91,81,57,30.02,29.73,9,1,11,0.57
2014-5-9,67.0,51.3,37.1,39.4,35.2,29.8,92,58,30,29.98,29.70,8,0,11,0.00
2014-5-10,68.7,54.3,40.9,46.4,39.4,33.8,84,60,34,29.84,29.60,14,1,14,0.03
2014-5-11,48.6,36.9,32.5,44.0,34.2,30.4,92,90,82,30.28,29.63,14,2,16,0.82
2014-5-12,42.3,35.2,30.8,31.3,28.5,24.3,93,78,52,30.56,30.26,12,2,17,0.48
2014-5-13,51.7,41.8,33.5,28.5,24.9,19.3,77,53,32,30.58,30.46,11,1,13,0.02
2014-5-14,58.5,46.4,31.0,38.6,28.9,23.5,76,52,30,30.54,30.29,12,1,15,0.00
2014-5-15,63.1,51.3,38.1,41.8,36.3,32.2,82,58,39,30.34,30.05,8,0,11,0.00
2014-5-16,64.6,53.3,41.4,46.1,40.4,35.8,83,63,41,30.11,29.91,10,1,17,0.02
2014-5-17,70.6,56.3,45.3,51.9,45.7,41.3,87,69,43,30.04,29.81,9,1,10,0.01
2014-5-18,84.1,66.3,46.1,49.7,40.0,28.0,86,46,17,29.87,29.42,12,1,20,0.00
2014-5-19,80.7,67.2,49.4,49.2,40.4,28.9,61,39,27,29.76,29.42,11,1,14,0.00
2014-5-20,73.6,63.1,53.9,54.7,49.5,42.1,82,62,45,29.84,29.72,10,1,11,0.14
2014-5-21,70.0,58.5,51.0,56.4,50.6,45.4,89,76,57,30.04,29.81,12,0,21,0.62
2014-5-22,75.5,58.9,52.3,58.5,51.9,48.0,92,79,50,30.10,29.89,12,1,14,0.44
2014-5-23,73.5,59.0,47.4,56.7,50.7,43.7,91,75,46,30.09,29.84,6,0,12,0.07
2014-5-24,69.2,59.0,51.4,56.0,50.7,46.7,90,75,57,29.92,29.77,8,1,13,0.06
2014-5-25,70.1,56.8,48.0,55.0,47.0,41.4,92,71,46,29.94,29.77,15,0,16,0.09
2014-5-26,75.6,61.7,48.9,52.8,45.6,40.9,76,57,32,30.01,29.83,11,0,11,0.00
2014-5-27,83.7,68.6,50.2,51.3,45.5,39.7,80,48,23,29.95,29.83,9,0,10,0.00
2014-5-28,87.7,72.1,54.3,49.7,44.5,36.1,68,40,18,29.95,29.74,7,0,10,0.00
2014-5-29,85.8,72.1,56.9,56.3,47.6,43.5,66,43,27,29.82,29.66,17,1,20,0.00
2014-5-30,72.2,63.6,56.2,57.8,52.8,46.8,87,69,47,30.01,29.72,11,0,11,0.09
2014-5-31,81.3,65.8,51.2,61.3,52.2,48.2,92,65,37,30.02,29.66,6,0,11,0.01
2014-6-1,83.5,69.5,54.3,54.3,47.1,35.1,81,49,20,29.88,29.58,11,1,13,0.00
2014-6-2,83.9,70.1,53.3,53.6,46.6,39.6,73,46,23,29.94,29.69,5,0,10,0.00
2014-6-3,92.6,75.2,57.7,54.4,43.5,30.3,77,38,13,29.71,29.46,15,1,17,0.00
2014-6-4,84.7,68.2,54.6,61.8,49.1,42.8,77,53,28,29.80,29.53,6,0,11,0.09
2014-6-5,76.5,64.9,52.4,56.0,48.8,45.1,80,57,42,29.92,29.72,12,1,13,0.00
2014-6-6,77.6,67.5,56.5,54.8,47.1,37.8,72,50,26,29.88,29.61,15,1,15,0.00
2014-6-7,71.5,59.5,49.9,54.5,50.0,45.3,87,71,54,29.98,29.85,10,1,15,0.00
2014-6-8,65.6,53.8,45.9,55.4,49.0,42.8,90,84,66,30.07,29.73,11,1,16,0.42
2014-6-9,68.6,55.8,39.3,44.7,38.6,35.2,89,56,33,30.22,29.91,10,1,13,0.00
2014-6-10,84.6,66.3,48.5,58.1,43.8,36.8,71,48,19,29.92,29.60,12,1,15,0.01
2014-6-11,82.2,66.4,56.4,53.8,46.9,38.7,81,52,23,29.91,29.56,10,0,12,0.00
2014-6-12,75.7,64.7,56.1,57.0,52.6,46.1,83,66,47,30.05,29.81,6,0,11,0.00
2014-6-13,91.2,73.8,53.1,53.6,44.2,35.8,83,39,16,29.85,29.34,11,1,14,0.00
2014-6-14,78.0,63.9,51.0,52.9,45.0,34.7,83,53,28,29.73,29.33,11,0,11,0.19
2014-6-15,75.7,62.8,45.5,47.2,43.8,36.3,87,54,29,29.90,29.57,6,0,11,0.01
2014-6-16,85.3,71.1,51.4,47.9,38.7,30.1,62,33,17,29.59,29.39,6,0,7,0.00
2014-6-17,90.0,71.9,52.1,49.9,39.6,33.1,57,34,15,29.62,29.36,12,1,16,0.00
2014-6-18,79.8,65.9,53.7,56.5,44.4,35.1,89,48,31,29.85,29.41,17,1,19,0.48
2014-6-19,80.0,67.3,48.3,53.2,47.5,42.8,92,54,28,30.08,29.82,8,0,10,0.00
2014-6-20,85.0,70.3,52.9,61.5,48.1,40.7,79,49,23,29.95,29.69,6,0,6,0.02
2014-6-21,81.5,69.4,58.1,58.8,50.4,39.5,74,53,24,29.82,29.63,16,0,21,0.00
2014-6-22,76.3,65.5,57.2,54.9,49.5,44.3,73,57,37,29.93,29.70,7,0,14,0.00
2014-6-23,79.8,65.2,51.4,57.6,52.3,47.2,89,65,41,29.98,29.81,12,1,12,0.00
2014-6-24,76.8,67.2,58.8,58.6,55.2,52.4,83,67,45,29.95,29.80,6,0,11,0.00
2014-6-25,85.2,72.8,59.0,58.2,51.7,40.5,85,52,25,29.87,29.60,16,0,20,0.00
2014-6-26,90.8,72.9,56.1,55.8,48.6,38.7,79,46,18,29.71,29.37,7,0,12,0.00
2014-6-27,79.6,67.4,59.0,56.8,50.1,42.9,76,55,29,29.65,29.38,9,0,11,0.03
2014-6-28,82.8,71.4,57.9,49.6,43.4,38.5,65,38,23,29.75,29.57,11,1,15,0.00
2014-6-29,92.2,74.9,54.5,54.5,46.4,40.7,65,39,19,29.80,29.55,7,0,11,0.00
2014-6-30,91.4,74.7,60.0,55.4,47.5,42.7,62,40,21,29.83,29.55,10,0,16,0.00
2014-7-1,74.9,67.1,59.3,51.9,45.0,40.0,56,45,37,30.07,29.83,5,0,9,0.00
2014-7-2,80.0,69.2,60.3,56.6,51.4,45.7,66,54,39,30.08,29.86,7,0,10,0.00
2014-7-3,89.7,74.4,57.8,59.8,52.6,44.1,83,50,26,29.96,29.76,10,1,16,0.00
2014-7-4,73.1,73.1,73.0,48.7,48.7,48.5,42,42,42,29.82,29.80,1,0,3,0.00
2014-7-6,85.7,79.0,72.2,56.1,50.8,48.2,45,38,30,29.81,29.74,10,0,11,0.00
2014-7-7,97.0,77.7,19.9,62.4,50.2,12.0,75,43,17,30.10,29.59,6,0,10,0.17
2014-7-8,80.1,72.2,61.6,61.7,58.9,56.1,89,64,49,30.33,29.85,5,0,7,0.22
2014-7-9,92.4,75.8,60.6,63.4,53.2,42.5,83,49,21,29.89,29.63,14,1,19,0.00
2014-7-10,91.7,77.6,60.9,57.7,52.5,47.8,67,44,24,29.77,29.59,8,0,12,0.00
2014-7-11,87.8,73.4,64.8,63.9,59.1,55.9,83,63,37,29.91,29.68,10,0,13,0.05
2014-7-12,79.8,68.7,62.3,65.4,61.2,58.3,89,78,54,30.08,29.88,9,0,10,0.20
2014-7-13,83.6,71.0,59.1,63.8,58.4,54.7,90,67,40,30.14,29.90,6,0,10,0.00
2014-7-14,82.8,71.8,60.8,61.1,56.5,-1.3,89,61,38,30.06,29.93,12,0,12,0.83
2014-7-15,76.0,65.8,58.1,64.3,59.3,55.8,93,80,58,30.04,29.80,5,0,10,0.11
2014-7-16,76.5,64.6,56.8,61.9,57.1,53.3,91,78,52,29.95,29.75,11,1,16,0.31
2014-7-17,75.0,64.8,56.0,59.8,54.4,49.9,93,72,44,30.00,29.83,4,0,7,0.00
2014-7-18,85.2,73.4,59.6,58.1,53.2,49.2,80,52,32,29.83,29.67,10,0,14,0.00
2014-7-19,91.6,76.6,59.0,56.9,50.0,41.3,71,42,20,29.80,29.62,11,0,16,0.00
2014-7-20,93.0,78.5,64.3,60.4,50.4,45.0,58,39,22,29.77,29.61,10,0,12,0.00
2014-7-21,93.4,78.3,64.8,59.2,52.1,45.8,63,42,22,29.83,29.69,4,0,7,0.00
2014-7-22,90.8,77.6,63.6,61.7,52.9,46.4,61,43,29,30.02,29.80,13,0,14,0.00
2014-7-23,84.0,73.8,62.4,66.6,56.4,49.3,81,56,32,30.04,29.86,15,1,23,0.00
2014-7-24,92.3,78.9,63.8,61.3,54.6,49.6,73,45,27,29.86,29.62,7,0,13,0.00
2014-7-25,90.5,75.2,66.1,62.7,56.0,51.5,66,53,28,29.83,29.66,13,0,16,0.00
2014-7-26,86.3,73.1,62.2,60.5,55.6,51.5,69,55,34,29.97,29.71,10,1,13,0.01
2014-7-27,82.0,70.3,60.0,63.9,58.1,53.2,84,66,48,30.11,29.86,9,0,10,0.00
2014-7-28,82.2,71.2,62.3,64.9,58.5,53.5,82,65,49,30.08,29.93,9,0,12,0.00
2014-7-29,83.0,67.2,60.4,62.2,58.2,53.9,90,74,46,30.02,29.83,10,0,13,0.48
2014-7-30,62.2,58.9,57.2,59.8,56.7,54.9,94,92,89,30.21,29.95,5,0,6,1.58
2014-7-31,74.6,63.2,56.8,59.3,56.0,53.2,95,79,50,30.17,30.00,6,0,7,0.02
2014-8-1,77.9,66.3,55.0,59.3,52.3,46.3,90,63,38,30.09,29.98,9,0,11,0.00
2014-8-2,84.2,69.2,54.8,55.3,50.8,44.3,79,54,27,30.11,29.93,6,0,7,0.00
2014-8-3,85.3,72.2,57.8,58.7,53.4,48.6,81,54,31,30.01,29.83,4,0,6,0.00
2014-8-4,85.0,72.6,60.5,61.4,54.6,50.8,78,54,32,29.89,29.77,9,0,10,0.00
2014-8-5,77.5,69.0,61.7,60.0,55.8,52.7,77,63,46,29.93,29.75,8,0,9,0.02
2014-8-6,86.0,70.6,58.3,57.5,53.9,48.6,82,58,30,29.93,29.77,9,0,11,0.00
2014-8-7,77.9,67.6,61.0,62.0,56.8,53.0,84,69,53,29.95,29.80,14,0,20,0.06
2014-8-8,85.0,69.9,56.5,57.2,52.5,45.3,82,57,25,29.94,29.74,7,0,11,0.00
2014-8-9,82.5,68.7,60.2,55.8,51.8,47.5,77,56,34,30.01,29.77,13,0,13,0.02
2014-8-10,76.4,67.1,57.8,58.8,53.7,50.9,82,63,44,30.15,29.99,7,0,9,0.00
2014-8-11,83.6,70.1,55.8,57.8,51.2,41.3,80,54,26,30.17,30.00,6,0,8,0.00
2014-8-12,87.5,73.0,57.3,56.5,50.6,44.7,79,48,26,30.07,29.87,6,0,9,0.00
2014-8-13,90.3,74.2,60.5,59.0,52.9,49.6,74,49,28,29.94,29.74,12,1,17,0.00
2014-8-14,84.2,71.7,64.6,61.7,57.2,54.1,79,61,40,29.84,29.69,8,0,13,0.04
2014-8-15,87.4,69.5,59.4,58.8,54.8,50.9,85,62,30,29.96,29.75,12,0,17,0.04
2014-8-16,90.8,73.6,58.7,57.0,50.9,45.3,74,48,23,29.95,29.77,7,0,8,0.00
2014-8-17,90.0,72.4,59.9,66.5,49.8,43.2,80,47,22,29.92,29.76,12,0,16,0.06
2014-8-18,86.3,71.6,58.6,56.5,48.5,44.5,65,45,28,29.86,29.70,14,1,17,0.02
2014-8-19,89.4,70.0,57.6,57.7,51.7,47.2,73,55,26,29.77,29.54,12,0,15,0.00
2014-8-20,84.5,71.8,59.7,59.8,55.1,51.1,82,58,36,29.74,29.55,7,0,11,0.03
2014-8-21,84.5,70.6,59.0,58.5,54.1,47.5,86,59,30,29.87,29.71,10,0,13,0.01
2014-8-22,70.1,65.7,61.9,61.8,57.3,53.1,84,74,61,29.92,29.78,5,0,9,0.01
2014-8-23,78.0,66.1,55.7,60.7,51.9,36.7,92,64,34,29.81,29.61,10,0,12,0.02
2014-8-24,82.7,67.1,52.0,50.5,45.7,38.8,81,49,24,29.87,29.73,7,0,8,0.00
2014-8-25,76.3,64.2,54.6,57.9,51.1,43.9,82,63,47,30.04,29.77,9,0,10,0.01
2014-8-26,79.3,63.6,57.7,62.0,57.6,54.7,92,82,50,30.06,29.87,12,0,19,1.15
2014-8-27,77.1,64.4,56.1,59.5,55.7,48.6,91,75,46,30.00,29.81,10,0,11,0.05
2014-8-28,71.1,59.0,52.1,56.2,50.6,47.4,88,75,47,30.06,29.92,10,0,14,0.05
2014-8-29,78.7,62.5,52.7,55.6,49.3,44.9,84,63,39,30.00,29.85,11,0,18,0.02
2014-8-30,86.4,67.8,51.5,54.7,48.1,43.0,79,52,25,29.97,29.63,6,0,16,0.00
2014-8-31,78.7,63.3,54.9,56.7,51.6,47.5,83,67,42,29.79,29.61,7,0,13,0.00
2014-9-1,79.1,64.2,51.7,53.0,48.4,44.6,85,60,32,29.94,29.73,6,0,9,0.00
2014-9-2,87.6,68.3,50.0,55.6,48.2,41.9,82,52,22,29.97,29.67,4,0,6,0.00
2014-9-3,93.0,75.9,61.4,53.8,47.9,42.1,68,41,19,29.68,29.44,10,1,14,0.00
2014-9-4,72.2,63.9,56.9,55.1,49.1,42.7,88,60,41,30.06,29.49,7,0,7,0.27
2014-9-5,67.6,57.3,50.9,57.3,51.7,48.4,92,82,65,30.25,30.05,9,1,10,0.21
2014-9-6,73.4,60.5,50.4,57.9,52.3,47.3,92,76,54,30.28,30.06,5,0,6,0.00
2014-9-7,81.4,65.8,50.3,55.9,49.6,46.2,89,59,31,30.06,29.79,9,0,9,0.00
2014-9-8,81.0,68.3,56.3,55.6,50.3,46.5,78,54,35,29.86,29.68,6,0,10,0.00
2014-9-9,76.2,65.1,58.7,58.0,54.5,50.1,84,70,46,29.78,29.54,11,0,13,0.04
2014-9-10,73.7,60.5,52.3,55.3,50.5,45.6,91,72,37,30.02,29.76,4,0,8,0.25
2014-9-11,57.3,48.6,38.8,49.0,44.5,36.4,92,86,72,30.50,29.87,10,1,10,0.15
2014-9-12,47.7,40.6,34.4,39.5,35.6,32.0,92,83,69,30.61,30.32,5,0,6,0.08
2014-9-13,79.0,55.1,33.3,49.9,38.9,30.4,91,60,27,30.31,29.94,5,0,6,0.00
2014-9-14,85.0,65.0,45.0,51.7,43.7,38.8,85,51,22,30.04,29.78,7,0,10,0.00
2014-9-15,73.1,60.9,50.5,51.9,47.2,40.5,80,62,41,30.19,29.84,9,0,10,0.00
2014-9-16,86.6,67.4,50.3,52.2,47.0,42.9,86,53,23,30.05,29.83,5,0,6,0.00
2014-9-17,87.6,69.9,53.2,51.8,46.2,41.2,74,46,21,29.92,29.68,10,0,12,0.00
2014-9-18,87.7,70.4,53.6,53.2,45.7,39.8,72,44,24,29.86,29.62,4,0,11,0.00
2014-9-19,87.0,72.8,60.3,54.7,46.4,37.7,67,40,27,29.82,29.58,7,0,7,0.00
2014-9-20,79.3,66.9,56.4,56.8,51.4,47.7,75,59,38,30.11,29.78,10,0,10,0.00
2014-9-21,73.7,63.1,55.5,56.7,51.8,45.3,90,67,49,30.22,30.00,7,0,10,0.19
2014-9-22,77.9,63.7,55.0,61.1,53.8,48.3,91,72,41,30.08,29.83,7,0,13,0.08
2014-9-23,79.3,65.6,56.8,52.5,50.0,46.4,83,60,34,29.99,29.84,8,0,13,0.00
2014-9-24,81.4,65.9,51.4,53.8,47.6,44.2,81,54,30,30.14,29.93,4,0,7,0.00
2014-9-25,87.1,68.9,52.0,55.3,47.5,44.3,77,49,26,30.09,29.80,5,0,9,0.00
2014-9-26,87.3,69.9,53.2,54.6,47.3,40.8,77,47,25,29.90,29.68,3,0,5,0.00
2014-9-27,84.8,67.4,52.8,53.1,45.0,38.8,75,47,23,29.80,29.62,6,0,6,0.00
2014-9-28,71.6,59.9,52.4,58.4,50.9,43.9,89,73,51,29.92,29.72,14,1,15,0.09
2014-9-29,64.0,55.1,47.6,53.9,50.4,44.8,91,85,65,29.93,29.66,8,0,11,0.85
2014-9-30,66.8,54.7,42.1,44.8,40.7,36.0,91,63,34,29.82,29.69,7,1,14,0.01
2014-10-1,67.4,50.0,43.4,49.0,40.5,37.5,86,72,38,30.03,29.64,10,0,16,0.16
2014-10-2,64.6,50.3,38.1,40.3,34.5,28.0,90,60,27,30.21,29.97,9,1,12,0.10
2014-10-3,60.4,45.6,36.8,39.8,33.4,27.5,80,63,42,30.41,30.20,7,0,11,0.00
2014-10-4,74.2,54.2,36.1,43.8,36.3,32.0,87,55,26,30.24,29.88,5,0,6,0.00
2014-10-5,73.8,56.8,42.5,43.6,38.9,36.2,80,54,27,30.03,29.82,6,0,11,0.00
2014-10-6,78.3,60.1,41.8,42.9,37.5,33.6,79,47,25,29.95,29.71,7,1,11,0.00
2014-10-7,78.6,60.7,44.7,46.4,38.9,34.6,70,47,24,29.98,29.77,5,0,8,0.00
2014-10-8,74.6,58.5,46.6,48.7,42.7,38.9,76,58,33,30.01,29.82,4,0,5,0.00
2014-10-9,61.3,53.1,47.6,51.7,46.3,41.5,91,78,61,30.15,29.84,7,0,10,0.50
2014-10-10,60.7,52.0,45.0,50.8,46.2,41.1,93,81,60,30.20,30.06,6,0,9,0.06
2014-10-11,70.4,53.7,40.3,47.2,42.3,37.3,90,69,33,30.11,29.69,6,0,11,0.00
2014-10-12,53.3,48.0,42.3,45.1,39.6,31.9,85,73,61,30.14,29.59,16,1,16,0.07
2014-10-13,57.4,45.8,36.1,36.4,33.3,30.9,86,63,39,30.31,30.11,6,0,10,0.00
2014-10-14,72.8,53.1,37.6,40.9,33.7,28.9,76,51,24,30.24,30.00,6,0,11,0.00
2014-10-15,77.7,56.9,37.2,46.0,37.7,31.2,83,53,23,30.07,29.67,8,0,10,0.00
2014-10-16,71.3,57.7,46.3,43.2,36.2,31.2,61,45,29,30.00,29.67,12,1,12,0.00
2014-10-17,62.0,49.9,38.6,40.3,36.4,33.3,85,61,40,30.18,29.97,5,0,7,0.00
2014-10-18,68.4,51.3,37.4,44.0,38.8,33.0,87,65,37,30.20,29.95,4,0,5,0.00
2014-10-19,72.8,55.5,41.4,44.1,39.0,35.1,84,58,28,30.12,29.93,4,0,6,0.00
2014-10-20,77.6,59.1,42.2,45.3,39.0,34.8,79,50,26,30.16,29.83,10,1,13,0.00
2014-10-21,77.3,61.0,45.8,45.0,40.5,37.5,77,49,27,29.95,29.69,9,0,11,0.00
2014-10-22,70.2,57.2,47.0,47.3,42.8,39.0,84,61,34,30.05,29.75,5,0,9,0.02
2014-10-23,73.0,55.5,40.7,42.1,38.3,34.6,85,56,27,30.14,29.95,5,0,6,0.00
2014-10-24,80.6,61.6,50.0,42.5,35.8,30.0,62,41,16,30.14,29.89,6,0,8,0.00
2014-10-25,80.5,59.4,41.1,39.4,31.8,28.5,63,38,18,30.22,29.80,6,0,9,0.00
2014-10-26,77.6,59.6,46.3,43.0,34.9,29.1,61,41,20,29.83,29.52,5,0,6,0.00
2014-10-27,54.7,44.0,34.4,38.7,35.0,30.1,84,71,49,30.19,29.58,9,0,10,0.02
2014-10-28,59.0,43.0,32.3,32.4,28.1,23.8,88,59,27,30.32,30.10,4,0,6,0.00
2014-10-29,70.9,50.5,30.6,30.9,25.5,22.8,76,43,19,30.30,30.01,11,1,16,0.00
2014-10-30,63.1,48.3,37.2,35.1,29.4,25.6,65,49,31,30.44,30.10,5,0,9,0.00
2014-10-31,56.4,43.2,32.3,34.5,30.2,25.6,79,61,42,30.43,30.09,5,0,7,0.00
2014-11-1,72.3,49.4,33.5,43.7,35.8,28.6,85,62,32,30.09,29.66,9,0,13,0.00
2014-11-2,66.0,57.9,43.2,38.0,35.8,33.4,70,44,32,29.75,29.57,12,1,18,0.00
2014-11-3,43.5,38.9,31.7,38.9,33.9,28.3,92,82,70,30.36,29.73,12,1,12,0.40
2014-11-4,60.6,41.4,29.0,29.6,25.0,15.6,89,58,19,30.47,30.16,7,0,10,0.01
2014-11-5,64.3,46.1,32.0,34.8,27.5,21.4,69,51,29,30.46,30.14,6,0,9,0.00
2014-11-6,70.3,48.7,31.5,34.4,28.5,25.2,79,50,22,30.52,30.02,5,0,6,0.00
2014-11-7,68.9,50.0,40.9,37.6,31.5,26.9,85,51,24,30.40,29.92,10,1,19,0.19
2014-11-8,68.0,47.5,33.6,39.5,34.4,29.5,90,65,27,30.41,30.00,9,0,9,0.02
2014-11-9,67.2,50.6,37.9,36.2,28.8,23.0,66,45,27,30.00,29.44,7,0,10,0.00
2014-11-10,65.4,34.4,23.7,34.7,21.7,15.3,70,61,23,30.26,29.35,14,2,17,0.00
2014-11-11,23.7,6.0,0.0,15.4,2.8,0.0,83,38,70,30.81,29.95,7,1,10,0.00
2014-11-12,8.5,4.1,0.1,1.5,-2.8,-6.3,77,73,63,31.00,30.73,7,1,8,0.00
2014-11-13,12.8,5.6,-3.6,4.6,-1.3,-9.0,80,73,66,30.97,30.44,5,0,6,0.00
2014-11-14,36.1,19.2,6.4,21.3,11.3,0.5,81,72,53,30.45,29.99,5,0,7,0.07
2014-11-15,21.6,16.0,8.9,17.5,10.8,3.7,92,80,72,30.54,29.91,7,1,10,0.00
2014-11-16,32.5,17.6,3.2,14.8,7.1,-1.6,82,65,37,30.55,30.36,6,0,7,0.06
2014-11-17,39.7,27.2,13.6,11.6,8.2,4.6,71,47,29,30.50,30.31,11,1,14,0.00
2014-11-18,48.8,34.5,17.7,17.9,12.6,6.5,62,42,26,30.37,30.07,9,0,14,0.02
2014-11-19,47.9,37.3,25.8,25.4,19.4,12.9,79,50,28,30.19,30.01,10,0,14,0.00
2014-11-20,49.2,34.7,21.7,26.9,22.2,16.6,81,62,37,30.23,30.02,5,0,5,0.00
2014-11-21,56.0,39.2,27.2,26.5,22.7,19.7,76,55,29,30.12,29.90,6,0,6,0.00
2014-11-22,63.7,47.0,28.6,27.5,22.0,16.7,67,40,19,29.96,29.45,18,1,19,0.00
2014-11-23,43.4,36.3,28.8,27.8,20.6,9.9,73,53,34,30.04,29.43,11,1,14,0.00
2014-11-24,43.6,31.8,23.1,20.9,13.2,7.7,68,47,28,30.43,29.98,13,1,17,0.00
2014-11-25,48.1,35.8,21.6,27.5,17.8,9.1,77,49,34,30.33,29.97,21,2,21,0.00
2014-11-26,48.1,33.1,26.3,29.8,24.1,21.2,83,71,47,30.44,30.18,11,0,11,0.03
2014-11-27,63.9,45.7,26.3,28.1,24.6,21.1,83,48,22,30.42,29.94,6,0,9,0.00
2014-11-28,67.2,52.6,40.6,27.4,20.8,16.3,43,30,18,29.97,29.66,6,0,9,0.00
2014-11-29,69.9,51.4,34.3,19.7,15.2,11.5,44,25,13,29.70,29.48,9,1,12,0.00
2014-11-30,49.4,29.3,19.3,19.9,15.4,12.3,87,61,24,30.65,29.50,11,1,15,0.00
2014-12-1,40.5,27.5,19.7,22.3,18.1,13.8,80,68,47,30.67,30.26,6,0,6,0.00
2014-12-2,65.5,41.1,24.6,24.0,18.6,14.0,76,46,14,30.26,29.89,9,0,10,0.00
2014-12-3,44.0,34.0,29.1,25.4,22.7,20.8,74,64,46,30.28,30.05,10,0,10,0.00
2014-12-4,52.2,39.8,30.9,29.4,25.1,20.8,72,56,38,30.17,29.92,5,0,6,0.00
2014-12-5,58.7,42.6,32.0,30.9,26.5,22.2,71,54,32,30.42,30.01,5,0,9,0.00
2014-12-6,46.4,36.4,30.7,30.8,26.3,22.9,79,67,51,30.48,30.28,4,0,5,0.00
2014-12-7,60.4,41.3,29.4,28.2,23.3,19.0,77,52,25,30.41,30.18,11,0,12,0.00
2014-12-8,47.9,37.5,28.4,25.9,22.3,18.9,70,55,40,30.52,30.31,5,0,5,0.00
2014-12-9,46.3,32.2,22.3,25.9,20.7,15.1,76,63,40,30.47,30.26,4,0,4,0.00
2014-12-10,64.8,40.6,24.5,23.2,16.6,12.1,67,41,17,30.38,30.07,5,0,7,0.00
2014-12-11,66.8,41.7,26.9,26.5,18.9,13.5,60,42,20,30.22,29.95,6,0,6,0.00
2014-12-12,65.3,42.5,27.6,22.9,18.2,14.6,59,41,18,30.23,29.93,6,0,6,0.00
2014-12-13,58.1,42.8,33.8,27.5,22.2,18.7,57,45,27,29.97,29.70,4,0,5,0.00
2014-12-14,35.2,32.4,29.6,30.8,26.4,18.5,90,79,56,30.01,29.68,10,1,11,0.04
2014-12-15,43.5,32.3,22.9,30.1,24.5,16.2,90,75,43,30.38,30.00,11,0,11,0.08
2014-12-16,34.7,26.1,18.5,23.1,18.6,13.4,83,73,59,30.40,30.22,5,0,6,0.00
2014-12-17,42.2,30.5,21.8,27.9,22.5,17.1,84,73,52,30.23,30.02,4,0,5,0.00
2014-12-18,43.7,31.9,22.9,29.4,24.3,18.8,87,74,55,30.27,30.09,5,0,6,0.00
2014-12-19,48.7,32.2,20.3,21.8,18.1,14.7,87,60,28,30.33,30.08,6,0,8,0.00
2014-12-20,49.9,35.3,25.9,24.8,21.1,16.0,68,57,35,30.17,29.99,5,0,6,0.00
2014-12-21,50.8,38.5,27.6,34.6,25.6,20.1,85,61,38,29.99,29.58,9,1,15,0.06
2014-12-22,38.6,31.7,26.0,33.8,26.7,19.0,90,82,62,30.03,29.71,11,1,13,0.02
2014-12-23,36.6,29.1,19.5,19.2,13.0,9.2,71,52,33,30.38,30.01,18,3,25,0.00
2014-12-24,53.1,32.7,17.2,23.8,16.0,6.6,67,52,25,30.31,29.50,7,0,10,0.00
2014-12-25,42.4,31.3,20.9,29.9,21.9,17.4,88,69,50,30.05,29.39,13,2,16,0.00
2014-12-26,21.2,17.7,10.8,17.9,13.2,6.2,88,82,74,30.47,30.01,6,0,10,0.00
2014-12-27,32.2,18.1,8.2,15.4,8.9,3.8,92,68,47,30.58,30.33,6,1,9,0.06
2014-12-28,38.7,22.0,10.8,17.3,11.4,5.3,80,65,38,30.33,30.02,6,0,6,0.04
2014-12-29,20.3,13.1,3.8,14.4,7.4,-1.6,81,78,71,30.91,30.13,9,2,10,0.00
2014-12-30,3.7,-0.6,-7.1,-1.3,-6.9,-13.1,79,74,67,31.11,30.90,5,1,6,0.00
2014-12-31,31.9,9.8,-7.1,11.9,0.2,-12.9,80,67,32,30.99,30.45,8,0,10,0.09
2015-1-1,27.1,16.8,4.7,19.2,8.3,-1.8,85,70,43,30.45,30.30,5,0,7,0.00
2015-1-2,40.5,24.7,10.9,23.3,16.3,7.3,86,72,48,30.37,29.99,7,0,7,0.08